createdAt,value
2016-12-04T00:00:04.850Z,1.54
2016-12-04T00:01:14.871Z,1.46
2016-12-04T00:02:24.897Z,1.5
2016-12-04T00:03:34.595Z,1.5
2016-12-04T00:04:44.935Z,1.54
2016-12-04T00:05:54.961Z,1.48
2016-12-04T00:07:05.282Z,1.44
2016-12-04T00:08:15.316Z,1.46
2016-12-04T00:09:25.665Z,1.46
2016-12-04T00:10:35.680Z,1.4
2016-12-04T00:11:45.385Z,1.42
2016-12-04T00:12:55.397Z,1.5
2016-12-04T00:14:05.412Z,1.47
2016-12-04T00:15:15.436Z,1.51
2016-12-04T00:16:25.790Z,1.42
2016-12-04T00:17:36.134Z,1.48
2016-12-04T00:18:46.500Z,1.46
2016-12-04T00:19:56.827Z,1.53
2016-12-04T00:21:07.172Z,1.42
2016-12-04T00:22:17.500Z,1.44
2016-12-04T00:23:27.508Z,1.4
2016-12-04T00:24:37.538Z,1.46
2016-12-04T00:25:47.861Z,1.54
2016-12-04T00:26:57.866Z,1.44
2016-12-04T00:28:07.904Z,1.47
2016-12-04T00:29:17.925Z,1.5
2016-12-04T00:30:27.649Z,1.5
2016-12-04T00:31:37.658Z,1.46
2016-12-04T00:32:47.660Z,1.5
2016-12-04T00:33:57.997Z,1.4
2016-12-04T00:35:08.019Z,1.42
2016-12-04T00:36:18.045Z,1.35
2016-12-04T00:37:28.375Z,1.42
2016-12-04T00:38:38.724Z,1.29
2016-12-04T00:39:48.737Z,1.35
2016-12-04T00:40:58.740Z,1.33
2016-12-04T00:42:09.099Z,1.33
2016-12-04T00:43:19.432Z,1.3
2016-12-04T00:44:29.135Z,1.3
2016-12-04T00:45:39.480Z,1.29
2016-12-04T00:46:49.806Z,1.35
2016-12-04T00:47:59.814Z,1.24
2016-12-04T00:49:09.519Z,1.24
2016-12-04T00:50:19.832Z,1.26
2016-12-04T00:51:29.839Z,1.24
2016-12-04T00:52:39.850Z,1.17
2016-12-04T00:53:50.177Z,1.14
2016-12-04T00:55:00.510Z,1.2
2016-12-04T00:56:10.812Z,1.12
2016-12-04T00:57:21.142Z,1.03
2016-12-04T00:58:31.484Z,1
2016-12-04T00:59:41.515Z,1
2016-12-04T01:00:50.909Z,1.03
2016-12-04T01:02:01.240Z,1.02
2016-12-04T01:03:11.556Z,0.99
2016-12-04T01:04:21.880Z,0.9
2016-12-04T01:05:31.932Z,0.9
2016-12-04T01:06:41.932Z,0.92
2016-12-04T01:07:52.263Z,0.84
2016-12-04T01:09:02.575Z,0.86
2016-12-04T01:10:12.603Z,0.9
2016-12-04T01:11:22.612Z,0.89
2016-12-04T01:12:32.933Z,0.85
2016-12-04T01:13:43.288Z,0.82
2016-12-04T01:14:52.693Z,0.9
2016-12-04T01:16:02.425Z,0.84
2016-12-04T01:17:12.447Z,0.81
2016-12-04T01:18:22.148Z,0.81
2016-12-04T01:19:32.152Z,0.78
2016-12-04T01:20:42.461Z,0.82
2016-12-04T01:21:52.468Z,0.82
2016-12-04T01:23:02.465Z,0.84
2016-12-04T01:24:12.172Z,0.79
2016-12-04T01:25:22.179Z,0.72
2016-12-04T01:26:32.500Z,0.79
2016-12-04T01:27:42.206Z,0.82
2016-12-04T01:28:52.221Z,0.75
2016-12-04T01:30:02.538Z,0.78
2016-12-04T01:31:12.543Z,0.75
2016-12-04T01:32:22.863Z,0.76
2016-12-04T01:33:32.866Z,0.74
2016-12-04T01:34:42.562Z,0.71
2016-12-04T01:35:52.874Z,0.72
2016-12-04T01:37:02.576Z,0.75
2016-12-04T01:38:12.923Z,0.74
2016-12-04T01:39:23.258Z,0.69
2016-12-04T01:40:33.585Z,0.74
2016-12-04T01:41:43.899Z,0.71
2016-12-04T01:42:54.218Z,0.78
2016-12-04T01:44:04.260Z,0.72
2016-12-04T01:45:14.272Z,0.69
2016-12-04T01:46:24.586Z,0.71
2016-12-04T01:47:34.600Z,0.64
2016-12-04T01:48:44.912Z,0.69
2016-12-04T01:49:54.915Z,0.71
2016-12-04T01:51:05.261Z,0.72
2016-12-04T01:52:15.588Z,0.64
2016-12-04T01:53:26.185Z,0.64
2016-12-04T01:54:36.216Z,0.76
2016-12-04T01:55:46.223Z,0.67
2016-12-04T01:56:56.240Z,0.69
2016-12-04T01:58:06.577Z,0.71
2016-12-04T01:59:16.920Z,0.75
2016-12-04T02:00:27.245Z,0.72
2016-12-04T02:01:37.578Z,0.64
2016-12-04T02:02:47.894Z,0.71
2016-12-04T02:03:58.205Z,0.63
2016-12-04T02:05:08.237Z,0.58
2016-12-04T02:06:17.960Z,0.64
2016-12-04T02:07:27.981Z,0.6
2016-12-04T02:08:38.306Z,0.56
2016-12-04T02:09:48.619Z,0.56
2016-12-04T02:10:58.626Z,0.64
2016-12-04T02:12:08.642Z,0.64
2016-12-04T02:13:18.375Z,0.63
2016-12-04T02:14:28.395Z,0.61
2016-12-04T02:15:38.743Z,0.57
2016-12-04T02:16:49.054Z,0.61
2016-12-04T02:17:59.058Z,0.64
2016-12-04T02:19:09.383Z,0.56
2016-12-04T02:20:19.689Z,0.6
2016-12-04T02:21:29.691Z,0.58
2016-12-04T02:22:40.024Z,0.61
2016-12-04T02:23:50.051Z,0.6
2016-12-04T02:25:00.424Z,0.53
2016-12-04T02:26:10.438Z,0.58
2016-12-04T02:27:20.461Z,0.58
2016-12-04T02:28:30.482Z,0.63
2016-12-04T02:29:40.179Z,0.66
2016-12-04T02:30:49.881Z,0.6
2016-12-04T02:32:00.241Z,0.61
2016-12-04T02:33:09.930Z,0.6
2016-12-04T02:34:20.496Z,0.58
2016-12-04T02:35:30.832Z,0.58
2016-12-04T02:36:40.866Z,0.63
2016-12-04T02:37:50.875Z,0.63
2016-12-04T02:39:00.892Z,0.58
2016-12-04T02:40:10.598Z,0.61
2016-12-04T02:41:20.912Z,0.61
2016-12-04T02:42:31.231Z,0.58
2016-12-04T02:43:41.238Z,0.58
2016-12-04T02:44:51.551Z,0.63
2016-12-04T02:46:01.577Z,0.61
2016-12-04T02:47:11.888Z,0.57
2016-12-04T02:48:21.579Z,0.61
2016-12-04T02:49:31.586Z,0.58
2016-12-04T02:50:41.928Z,0.53
2016-12-04T02:51:52.290Z,0.52
2016-12-04T02:53:02.301Z,0.47
2016-12-04T02:54:12.353Z,0.5
2016-12-04T02:55:22.664Z,0.53
2016-12-04T02:56:32.683Z,0.48
2016-12-04T02:57:42.378Z,0.47
2016-12-04T02:58:52.078Z,0.53
2016-12-04T03:00:02.401Z,0.44
2016-12-04T03:01:12.412Z,0.48
2016-12-04T03:32:40.482Z,-3.77
2016-12-04T03:33:50.473Z,-3.8
2016-12-04T03:35:00.160Z,-3.8
2016-12-04T03:36:10.505Z,-3.77
2016-12-04T03:37:20.812Z,-3.75
2016-12-04T03:38:30.534Z,-3.58
2016-12-04T03:39:40.852Z,-3.39
2016-12-04T03:40:51.162Z,-3.32
2016-12-04T03:42:01.158Z,-3.12
2016-12-04T03:43:10.856Z,-2.88
2016-12-04T03:44:20.867Z,-2.67
2016-12-04T03:45:31.188Z,-2.54
2016-12-04T03:46:41.525Z,-2.36
2016-12-04T03:47:51.523Z,-2.17
2016-12-04T03:49:01.554Z,-2.1
2016-12-04T03:50:11.557Z,-1.96
2016-12-04T03:51:21.882Z,-1.68
2016-12-04T03:52:32.198Z,-1.66
2016-12-04T03:53:42.232Z,-1.61
2016-12-04T03:54:52.554Z,-1.49
2016-12-04T03:56:01.992Z,-1.32
2016-12-04T03:57:12.024Z,-1.25
2016-12-04T03:58:22.351Z,-1.13
2016-12-04T03:59:32.360Z,-1.1
2016-12-04T04:00:42.070Z,-0.93
2016-12-04T04:01:52.378Z,-0.92
2016-12-04T04:03:02.400Z,-0.91
2016-12-04T04:04:12.407Z,-0.85
2016-12-04T04:05:22.748Z,-0.61
2016-12-04T04:06:32.453Z,-0.67
2016-12-04T04:07:42.767Z,-0.64
2016-12-04T04:08:53.094Z,-0.56
2016-12-04T04:10:03.092Z,-0.54
2016-12-04T04:11:13.416Z,-0.43
2016-12-04T04:12:23.414Z,-0.51
2016-12-04T04:13:33.742Z,-0.37
2016-12-04T04:14:44.076Z,-0.4
2016-12-04T04:15:54.402Z,-0.38
2016-12-04T04:17:04.731Z,-0.33
2016-12-04T04:18:15.050Z,-0.33
2016-12-04T04:19:25.388Z,-0.33
2016-12-04T04:20:35.394Z,-0.36
2016-12-04T04:21:45.419Z,-0.31
2016-12-04T04:22:55.737Z,-0.22
2016-12-04T04:24:06.090Z,-0.34
2016-12-04T04:25:16.415Z,-0.25
2016-12-04T04:26:26.424Z,-0.23
2016-12-04T04:27:36.427Z,-0.25
2016-12-04T04:28:46.753Z,-0.22
2016-12-04T04:29:56.771Z,-0.28
2016-12-04T04:31:07.135Z,-0.25
2016-12-04T04:32:17.456Z,-0.2
2016-12-04T04:33:27.477Z,-0.25
2016-12-04T04:34:37.795Z,-0.22
2016-12-04T04:35:48.122Z,-0.27
2016-12-04T04:36:58.459Z,-0.22
2016-12-04T04:38:08.785Z,-0.25
2016-12-04T04:39:19.103Z,-0.28
2016-12-04T04:40:28.809Z,-0.23
2016-12-04T04:41:39.144Z,-0.27
2016-12-04T04:42:49.157Z,-0.22
2016-12-04T04:43:59.482Z,-0.3
2016-12-04T04:45:09.809Z,-0.33
2016-12-04T04:46:20.127Z,-0.36
2016-12-04T04:47:30.446Z,-0.33
2016-12-04T04:48:40.449Z,-0.36
2016-12-04T04:49:50.755Z,-0.33
2016-12-04T04:51:00.769Z,-0.34
2016-12-04T04:52:11.088Z,-0.33
2016-12-04T04:53:21.399Z,-0.38
2016-12-04T04:54:31.106Z,-0.33
2016-12-04T04:55:41.444Z,-0.34
2016-12-04T04:56:51.150Z,-0.37
2016-12-04T04:58:01.163Z,-0.33
2016-12-04T04:59:11.177Z,-0.36
2016-12-04T05:00:20.881Z,-0.4
2016-12-04T05:01:30.896Z,-0.19
2016-12-04T05:02:41.216Z,-0.36
2016-12-04T05:03:50.927Z,-0.25
2016-12-04T05:05:01.246Z,-0.16
2016-12-04T05:06:10.982Z,-0.23
2016-12-04T05:07:21.305Z,-0.37
2016-12-04T05:08:31.351Z,-0.36
2016-12-04T05:09:41.374Z,-0.22
2016-12-04T05:10:51.090Z,-0.37
2016-12-04T05:12:01.122Z,-0.28
2016-12-04T05:13:11.145Z,-0.36
2016-12-04T05:14:20.850Z,-0.19
2016-12-04T05:15:31.167Z,-0.25
2016-12-04T05:16:41.183Z,-0.22
2016-12-04T05:17:51.493Z,-0.33
2016-12-04T05:19:01.507Z,-0.33
2016-12-04T05:20:11.764Z,-0.34
2016-12-04T05:21:21.778Z,-0.41
2016-12-04T05:22:31.810Z,-0.38
2016-12-04T05:23:41.833Z,-0.31
2016-12-04T05:24:52.142Z,-0.37
2016-12-04T05:26:02.473Z,-0.43
2016-12-04T05:27:12.804Z,-0.38
2016-12-04T05:28:22.827Z,-0.38
2016-12-04T05:29:32.843Z,-0.43
2016-12-04T05:30:43.170Z,-0.41
2016-12-04T05:31:53.173Z,-0.51
2016-12-04T05:33:03.190Z,-0.46
2016-12-04T05:34:13.199Z,-0.43
2016-12-04T05:35:22.582Z,-0.4
2016-12-04T05:36:32.274Z,-0.49
2016-12-04T05:37:42.583Z,-0.55
2016-12-04T05:38:52.285Z,-0.52
2016-12-04T05:40:01.977Z,-0.59
2016-12-04T05:41:12.298Z,-0.59
2016-12-04T05:42:22.316Z,-0.67
2016-12-04T05:43:32.637Z,-0.61
2016-12-04T05:44:42.954Z,-0.58
2016-12-04T05:45:53.305Z,-0.62
2016-12-04T05:47:03.642Z,-0.59
2016-12-04T05:48:13.964Z,-0.54
2016-12-04T05:49:23.972Z,-0.54
2016-12-04T05:50:34.298Z,-0.49
2016-12-04T05:51:43.991Z,-0.45
2016-12-04T05:52:54.302Z,-0.45
2016-12-04T05:54:04.622Z,-0.43
2016-12-04T05:55:14.945Z,-0.45
2016-12-04T05:56:24.961Z,-0.51
2016-12-04T05:57:35.281Z,-0.46
2016-12-04T05:58:45.274Z,-0.46
2016-12-04T05:59:54.972Z,-0.48
2016-12-04T06:01:05.295Z,-0.4
2016-12-04T06:02:15.598Z,-0.37
2016-12-04T06:03:25.611Z,-0.48
2016-12-04T06:04:35.618Z,-0.38
2016-12-04T06:05:45.633Z,-0.4
2016-12-04T06:06:55.946Z,-0.41
2016-12-04T06:08:05.957Z,-0.38
2016-12-04T06:09:16.314Z,-0.37
2016-12-04T06:10:26.627Z,-0.36
2016-12-04T06:11:36.627Z,-0.36
2016-12-04T06:12:46.944Z,-0.34
2016-12-04T06:13:56.636Z,-0.31
2016-12-04T06:15:06.974Z,-0.31
2016-12-04T06:16:17.299Z,-0.25
2016-12-04T06:17:27.306Z,-0.4
2016-12-04T06:18:37.327Z,-0.22
2016-12-04T06:19:47.653Z,-0.2
2016-12-04T06:20:57.712Z,-0.28
2016-12-04T06:22:08.042Z,-0.22
2016-12-04T06:23:18.045Z,-0.2
2016-12-04T06:24:27.737Z,-0.22
2016-12-04T06:25:37.447Z,-0.2
2016-12-04T06:26:47.775Z,-0.22
2016-12-04T06:27:58.152Z,-0.18
2016-12-04T06:29:08.478Z,-0.2
2016-12-04T06:30:18.801Z,-0.19
2016-12-04T06:31:28.810Z,-0.19
2016-12-04T06:32:39.128Z,-0.07
2016-12-04T06:33:49.466Z,-0.12
2016-12-04T06:34:59.780Z,-0.07
2016-12-04T06:36:09.786Z,0.03
2016-12-04T06:37:20.115Z,0.05
2016-12-04T06:38:30.454Z,-0.09
2016-12-04T06:39:40.464Z,-0.01
2016-12-04T06:40:50.471Z,0.08
2016-12-04T06:42:00.483Z,0.06
2016-12-04T06:43:10.805Z,0.08
2016-12-04T06:44:20.822Z,-0.02
2016-12-04T06:45:30.832Z,0.08
2016-12-04T06:46:40.565Z,0.13
2016-12-04T06:47:50.582Z,0.26
2016-12-04T06:49:00.899Z,0.2
2016-12-04T06:50:10.906Z,0.2
2016-12-04T06:51:20.913Z,0.21
2016-12-04T06:52:30.638Z,0.14
2016-12-04T06:53:40.953Z,0.31
2016-12-04T06:54:51.323Z,0.35
2016-12-04T06:56:01.652Z,0.31
2016-12-04T06:57:11.650Z,0.38
2016-12-04T06:58:21.659Z,0.47
2016-12-04T06:59:31.974Z,0.47
2016-12-04T07:00:42.333Z,0.61
2016-12-04T07:01:52.347Z,0.6
2016-12-04T07:03:02.675Z,0.61
2016-12-04T07:04:12.995Z,0.58
2016-12-04T07:05:23.003Z,0.57
2016-12-04T07:06:33.029Z,0.66
2016-12-04T07:07:43.352Z,0.6
2016-12-04T07:08:53.681Z,0.63
2016-12-04T07:10:04.009Z,0.71
2016-12-04T07:11:14.037Z,0.66
2016-12-04T07:12:24.053Z,0.75
2016-12-04T07:13:34.380Z,0.71
2016-12-04T07:14:44.082Z,0.71
2016-12-04T07:15:53.783Z,0.74
2016-12-04T07:17:03.779Z,0.76
2016-12-04T07:18:13.486Z,0.84
2016-12-04T07:19:23.528Z,0.79
2016-12-04T07:20:33.229Z,0.89
2016-12-04T07:21:42.928Z,0.85
2016-12-04T07:22:52.938Z,0.97
2016-12-04T07:24:03.289Z,1.08
2016-12-04T07:25:13.621Z,1
2016-12-04T07:26:23.942Z,1.14
2016-12-04T07:27:34.271Z,1.11
2016-12-04T07:28:44.286Z,1.18
2016-12-04T07:29:54.646Z,1.2
2016-12-04T07:31:04.353Z,1.14
2016-12-04T07:32:14.680Z,1.18
2016-12-04T07:33:25.016Z,1.18
2016-12-04T07:34:34.716Z,1.26
2016-12-04T07:35:45.055Z,1.24
2016-12-04T07:36:54.751Z,1.28
2016-12-04T07:38:04.764Z,1.3
2016-12-04T07:39:14.761Z,1.35
2016-12-04T07:40:25.079Z,1.36
2016-12-04T07:41:35.083Z,1.38
2016-12-04T07:42:45.085Z,1.39
2016-12-04T07:43:55.101Z,1.35
2016-12-04T07:45:05.116Z,1.38
2016-12-04T07:46:15.439Z,1.42
2016-12-04T07:47:25.464Z,1.46
2016-12-04T07:48:35.778Z,1.46
2016-12-04T07:49:45.794Z,1.44
2016-12-04T07:50:55.486Z,1.46
2016-12-04T07:52:05.503Z,1.54
2016-12-04T07:53:15.849Z,1.56
2016-12-04T07:54:26.173Z,1.56
2016-12-04T07:55:36.179Z,1.61
2016-12-04T07:56:46.507Z,1.68
2016-12-04T07:57:56.837Z,1.64
2016-12-04T07:59:07.173Z,1.75
2016-12-04T08:00:17.207Z,1.82
2016-12-04T08:01:27.546Z,1.86
2016-12-04T08:02:37.548Z,1.76
2016-12-04T08:03:47.566Z,1.78
2016-12-04T08:04:57.888Z,1.71
2016-12-04T08:06:08.225Z,1.72
2016-12-04T08:07:18.795Z,1.83
2016-12-04T08:08:28.823Z,1.71
2016-12-04T08:09:38.518Z,1.78
2016-12-04T08:10:48.846Z,1.84
2016-12-04T08:11:58.858Z,1.82
2016-12-04T08:13:09.189Z,1.76
2016-12-04T08:14:19.516Z,1.84
2016-12-04T08:15:29.843Z,1.76
2016-12-04T08:16:40.175Z,1.86
2016-12-04T08:17:50.189Z,1.87
2016-12-04T08:19:00.218Z,1.9
2016-12-04T08:20:10.230Z,1.87
2016-12-04T08:21:20.242Z,1.92
2016-12-04T08:22:30.560Z,1.84
2016-12-04T08:23:40.885Z,1.94
2016-12-04T08:24:51.192Z,1.9
2016-12-04T08:26:01.518Z,1.98
2016-12-04T08:27:11.865Z,2.04
2016-12-04T08:28:22.222Z,2.02
2016-12-04T08:29:31.932Z,1.98
2016-12-04T08:30:42.247Z,1.97
2016-12-04T08:31:52.583Z,2.08
2016-12-04T08:33:02.925Z,2.2
2016-12-04T08:34:13.281Z,2.13
2016-12-04T08:35:22.999Z,2.34
2016-12-04T08:36:33.329Z,2.27
2016-12-04T08:37:43.355Z,2.34
2016-12-04T08:38:53.684Z,2.49
2016-12-04T08:40:03.720Z,2.63
2016-12-04T08:41:13.729Z,2.77
2016-12-04T08:42:24.084Z,2.78
2016-12-04T08:43:34.407Z,2.9
2016-12-04T08:44:44.727Z,2.96
2016-12-04T08:45:54.769Z,2.96
2016-12-04T08:47:04.790Z,3.11
2016-12-04T08:48:14.798Z,3.03
2016-12-04T08:49:24.815Z,3.13
2016-12-04T08:50:34.525Z,3.16
2016-12-04T08:51:44.243Z,3.13
2016-12-04T08:52:54.260Z,3.32
2016-12-04T08:54:03.342Z,3.42
2016-12-04T08:55:13.360Z,3.51
2016-12-04T08:56:23.701Z,3.78
2016-12-04T08:57:33.708Z,3.89
2016-12-04T08:58:44.034Z,3.94
2016-12-04T08:59:54.350Z,4.15
2016-12-04T09:01:04.042Z,4.36
2016-12-04T09:02:14.359Z,4.42
2016-12-04T09:03:24.677Z,4.47
2016-12-04T09:04:35.031Z,4.54
2016-12-04T09:05:45.353Z,4.48
2016-12-04T09:06:55.663Z,4.47
2016-12-04T09:08:05.976Z,4.58
2016-12-04T09:09:15.674Z,4.72
2016-12-04T09:10:25.682Z,4.83
2016-12-04T09:11:35.703Z,4.83
2016-12-04T09:12:46.019Z,4.83
2016-12-04T09:13:55.730Z,4.74
2016-12-04T09:15:06.067Z,4.71
2016-12-04T09:16:16.398Z,4.66
2016-12-04T09:17:26.415Z,4.65
2016-12-04T09:18:36.727Z,4.75
2016-12-04T09:19:46.743Z,4.66
2016-12-04T09:20:57.066Z,4.69
2016-12-04T09:22:07.092Z,4.65
2016-12-04T09:23:16.789Z,4.72
2016-12-04T09:24:27.118Z,4.69
2016-12-04T09:25:37.137Z,4.85
2016-12-04T09:26:47.480Z,4.84
2016-12-04T09:27:57.812Z,4.85
2016-12-04T09:29:08.138Z,4.83
2016-12-04T09:30:18.163Z,4.92
2016-12-04T09:31:28.490Z,4.84
2016-12-04T09:32:38.545Z,4.95
2016-12-04T09:33:48.915Z,5.06
2016-12-04T09:34:58.297Z,5
2016-12-04T09:36:08.000Z,5.06
2016-12-04T09:37:17.715Z,5.12
2016-12-04T09:38:28.072Z,5.13
2016-12-04T09:39:37.776Z,5.13
2016-12-04T09:40:47.505Z,5.2
2016-12-04T09:41:57.831Z,5.2
2016-12-04T09:43:07.858Z,5.23
2016-12-04T09:44:17.869Z,5.2
2016-12-04T09:45:27.931Z,5.2
2016-12-04T09:46:38.298Z,5.31
2016-12-04T09:47:48.315Z,5.37
2016-12-04T09:48:58.642Z,5.42
2016-12-04T09:50:08.660Z,5.57
2016-12-04T09:51:18.362Z,5.59
2016-12-04T09:52:28.703Z,5.69
2016-12-04T09:53:39.029Z,5.69
2016-12-04T09:54:49.036Z,5.63
2016-12-04T09:55:59.072Z,5.69
2016-12-04T09:57:08.803Z,5.67
2016-12-04T09:58:18.824Z,5.64
2016-12-04T09:59:28.843Z,5.73
2016-12-04T10:00:39.189Z,5.8
2016-12-04T10:01:48.897Z,5.85
2016-12-04T10:02:59.216Z,5.84
2016-12-04T10:04:08.395Z,5.73
2016-12-04T10:05:18.435Z,5.84
2016-12-04T10:06:28.142Z,5.85
2016-12-04T10:07:38.151Z,5.89
2016-12-04T10:08:48.697Z,5.87
2016-12-04T10:09:59.048Z,5.82
2016-12-04T10:11:09.375Z,5.88
2016-12-04T10:12:19.503Z,5.88
2016-12-04T10:13:29.832Z,6.05
2016-12-04T10:14:39.868Z,5.99
2016-12-04T10:15:49.906Z,6.07
2016-12-04T10:17:00.232Z,6.18
2016-12-04T10:18:10.552Z,6.36
2016-12-04T10:19:20.587Z,6.29
2016-12-04T10:20:30.938Z,6.36
2016-12-04T10:21:41.256Z,6.28
2016-12-04T10:22:51.285Z,6.31
2016-12-04T10:24:01.303Z,6.28
2016-12-04T10:25:11.630Z,6.33
2016-12-04T10:26:21.655Z,6.33
2016-12-04T10:27:31.981Z,6.29
2016-12-04T10:28:41.996Z,6.34
2016-12-04T10:29:52.008Z,6.33
2016-12-04T10:31:02.024Z,6.26
2016-12-04T10:32:12.050Z,6.49
2016-12-04T10:33:21.438Z,6.39
2016-12-04T10:34:31.449Z,6.47
2016-12-04T10:35:41.467Z,6.44
2016-12-04T10:36:51.474Z,6.44
2016-12-04T10:38:01.180Z,6.49
2016-12-04T10:39:11.190Z,6.43
2016-12-04T10:40:21.524Z,6.47
2016-12-04T10:41:31.879Z,6.4
2016-12-04T10:42:42.202Z,6.47
2016-12-04T10:43:52.205Z,6.52
2016-12-04T10:45:02.535Z,6.49
2016-12-04T10:46:12.857Z,6.44
2016-12-04T10:47:23.193Z,6.54
2016-12-04T10:48:33.219Z,6.55
2016-12-04T10:49:43.247Z,6.57
2016-12-04T10:50:53.291Z,6.6
2016-12-04T10:52:03.310Z,6.65
2016-12-04T10:53:13.337Z,6.78
2016-12-04T10:54:23.374Z,6.85
2016-12-04T10:55:33.694Z,6.82
2016-12-04T10:56:43.707Z,6.8
2016-12-04T10:57:53.720Z,6.85
2016-12-04T10:59:03.730Z,6.93
2016-12-04T11:00:14.056Z,6.94
2016-12-04T11:01:24.379Z,6.82
2016-12-04T11:02:34.390Z,6.8
2016-12-04T11:03:44.398Z,6.82
2016-12-04T11:04:54.725Z,6.79
2016-12-04T11:06:04.752Z,6.8
2016-12-04T11:07:15.092Z,6.85
2016-12-04T11:08:25.099Z,6.78
2016-12-04T11:09:35.141Z,6.78
2016-12-04T11:10:45.473Z,6.75
2016-12-04T11:11:55.814Z,6.78
2016-12-04T11:18:43.902Z,6.43
2016-12-04T11:19:54.270Z,6.52
2016-12-04T11:21:04.593Z,6.34
2016-12-04T11:22:14.615Z,6.47
2016-12-04T11:23:24.936Z,6.42
2016-12-04T11:24:35.283Z,6.49
2016-12-04T11:25:45.616Z,6.51
2016-12-04T11:26:55.955Z,6.43
2016-12-04T11:28:05.971Z,6.4
2016-12-04T11:29:16.307Z,6.42
2016-12-04T11:30:26.629Z,6.36
2016-12-04T11:31:36.647Z,6.43
2016-12-04T11:32:46.376Z,6.29
2016-12-04T11:33:56.401Z,6.36
2016-12-04T11:35:06.444Z,6.37
2016-12-04T11:36:16.784Z,6.4
2016-12-04T11:37:26.810Z,6.49
2016-12-04T11:38:36.225Z,6.51
2016-12-04T11:39:46.259Z,6.61
2016-12-04T11:40:55.974Z,6.62
2016-12-04T11:42:06.327Z,6.64
2016-12-04T11:43:16.661Z,6.65
2016-12-04T11:44:27.007Z,6.68
2016-12-04T11:45:37.026Z,6.75
2016-12-04T11:46:47.350Z,6.68
2016-12-04T11:47:57.682Z,6.73
2016-12-04T11:49:08.021Z,6.83
2016-12-04T11:50:17.728Z,6.95
2016-12-04T11:51:27.746Z,7.04
2016-12-04T11:52:38.093Z,7.13
2016-12-04T11:53:48.435Z,7.08
2016-12-04T11:54:58.450Z,7.19
2016-12-04T11:56:08.157Z,7.26
2016-12-04T11:57:18.167Z,7.22
2016-12-04T11:58:28.180Z,7.29
2016-12-04T11:59:38.522Z,7.36
2016-12-04T12:00:48.553Z,7.23
2016-12-04T12:01:58.899Z,7.39
2016-12-04T12:03:09.242Z,7.39
2016-12-04T12:04:19.569Z,7.44
2016-12-04T12:05:29.614Z,7.34
2016-12-04T12:06:39.937Z,7.48
2016-12-04T12:07:49.968Z,7.33
2016-12-04T12:09:00.316Z,7.44
2016-12-04T12:10:10.330Z,7.56
2016-12-04T12:11:20.363Z,7.54
2016-12-04T12:12:30.710Z,7.51
2016-12-04T12:13:40.736Z,7.55
2016-12-04T12:14:51.065Z,7.48
2016-12-04T12:16:01.456Z,7.54
2016-12-04T12:17:11.797Z,7.54
2016-12-04T12:18:22.135Z,7.51
2016-12-04T12:19:32.157Z,7.49
2016-12-04T12:20:42.200Z,7.45
2016-12-04T12:21:52.221Z,7.44
2016-12-04T12:23:01.923Z,7.4
2016-12-04T12:24:12.287Z,7.33
2016-12-04T12:25:22.294Z,7.4
2016-12-04T12:26:32.630Z,7.3
2016-12-04T12:27:42.962Z,7.19
2016-12-04T12:28:53.319Z,7.19
2016-12-04T12:30:03.368Z,7.27
2016-12-04T12:31:13.696Z,7.23
2016-12-04T12:32:23.416Z,7.21
2016-12-04T12:33:33.756Z,7.15
2016-12-04T12:34:43.772Z,7.16
2016-12-04T12:35:54.107Z,7.18
2016-12-04T12:37:04.457Z,7.04
2016-12-04T12:38:14.501Z,7.03
2016-12-04T12:39:24.519Z,7.05
2016-12-04T12:40:34.548Z,6.94
2016-12-04T12:41:44.882Z,7
2016-12-04T12:42:54.913Z,6.83
2016-12-04T12:44:04.921Z,6.85
2016-12-04T12:45:15.277Z,6.83
2016-12-04T12:46:25.292Z,6.76
2016-12-04T12:47:35.639Z,6.73
2016-12-04T12:48:45.958Z,6.6
2016-12-04T12:49:55.659Z,6.54
2016-12-04T12:51:05.356Z,6.51
2016-12-04T12:52:15.686Z,6.44
2016-12-04T12:53:25.713Z,6.42
2016-12-04T12:54:35.722Z,6.37
2016-12-04T12:55:46.072Z,6.33
2016-12-04T12:56:55.764Z,6.29
2016-12-04T12:58:06.116Z,6.17
2016-12-04T12:59:16.131Z,6.17
2016-12-04T13:00:25.822Z,6.14
2016-12-04T13:01:36.159Z,6.02
2016-12-04T13:02:46.173Z,5.98
2016-12-04T13:03:56.248Z,6.03
2016-12-04T13:05:06.287Z,5.92
2016-12-04T13:06:16.311Z,5.89
2016-12-04T13:07:26.561Z,5.85
2016-12-04T13:08:36.896Z,5.89
2016-12-04T13:09:46.612Z,5.84
2016-12-04T13:10:56.952Z,5.8
2016-12-04T13:12:06.980Z,5.75
2016-12-04T13:13:17.006Z,5.67
2016-12-04T13:14:27.021Z,5.66
2016-12-04T13:15:37.035Z,5.6
2016-12-04T13:16:47.355Z,5.52
2016-12-04T13:17:57.691Z,5.59
2016-12-04T13:19:08.047Z,5.49
2016-12-04T13:20:18.073Z,5.45
2016-12-04T13:21:28.105Z,5.49
2016-12-04T13:22:38.108Z,5.48
2016-12-04T13:23:48.119Z,5.41
2016-12-04T13:24:58.150Z,5.37
2016-12-04T13:26:08.482Z,5.39
2016-12-04T13:27:18.825Z,5.39
2016-12-04T13:28:28.846Z,5.36
2016-12-04T13:29:39.211Z,5.33
2016-12-04T13:30:49.263Z,5.31
2016-12-04T13:31:59.585Z,5.33
2016-12-04T13:33:09.931Z,5.27
2016-12-04T13:34:20.258Z,5.18
2016-12-04T13:35:30.289Z,5.27
2016-12-04T13:36:40.627Z,5.26
2016-12-04T13:37:50.954Z,5.27
2016-12-04T13:39:01.294Z,5.09
2016-12-04T13:40:11.626Z,5.2
2016-12-04T13:41:21.667Z,5.08
2016-12-04T13:42:31.999Z,5.1
2016-12-04T13:43:42.343Z,5.05
2016-12-04T13:44:52.663Z,4.98
2016-12-04T13:46:02.117Z,4.98
2016-12-04T13:47:11.837Z,4.97
2016-12-04T13:48:22.171Z,4.98
2016-12-04T13:49:32.171Z,5.03
2016-12-04T13:50:42.506Z,4.95
2016-12-04T13:51:52.833Z,5.03
2016-12-04T13:53:02.526Z,4.91
2016-12-04T13:54:12.535Z,4.94
2016-12-04T13:55:22.868Z,5.02
2016-12-04T13:56:32.889Z,4.97
2016-12-04T13:57:42.613Z,4.87
2016-12-04T13:58:52.962Z,4.79
2016-12-04T14:00:02.965Z,4.97
2016-12-04T14:01:12.685Z,4.85
2016-12-04T14:02:22.717Z,4.87
2016-12-04T14:03:32.778Z,4.85
2016-12-04T14:04:42.510Z,4.85
2016-12-04T14:05:52.222Z,4.88
2016-12-04T14:07:02.247Z,4.84
2016-12-04T14:08:12.596Z,4.88
2016-12-04T14:09:22.923Z,4.83
2016-12-04T14:10:33.265Z,4.88
2016-12-04T14:11:43.592Z,4.83
2016-12-04T14:12:53.603Z,4.69
2016-12-04T14:14:03.331Z,4.69
2016-12-04T14:15:13.702Z,4.75
2016-12-04T14:16:23.400Z,4.75
2016-12-04T14:17:33.731Z,4.75
2016-12-04T14:18:43.749Z,4.71
2016-12-04T14:19:54.064Z,4.68
2016-12-04T14:21:04.087Z,4.68
2016-12-04T14:22:14.123Z,4.58
2016-12-04T14:23:24.151Z,4.6
2016-12-04T14:24:34.487Z,4.54
2016-12-04T14:25:44.813Z,4.56
2016-12-04T14:26:55.146Z,4.51
2016-12-04T14:28:04.534Z,4.51
2016-12-04T14:29:14.880Z,4.39
2016-12-04T14:30:25.217Z,4.42
2016-12-04T14:31:35.235Z,4.44
2016-12-04T14:32:45.485Z,4.3
2016-12-04T14:33:55.822Z,4.36
2016-12-04T14:35:05.849Z,4.2
2016-12-04T14:36:15.901Z,4.3
2016-12-04T14:37:25.921Z,4.22
2016-12-04T14:38:35.935Z,4.2
2016-12-04T14:39:46.260Z,4.14
2016-12-04T14:40:56.271Z,4.15
2016-12-04T14:42:06.302Z,4.15
2016-12-04T14:43:15.724Z,4.07
2016-12-04T14:44:25.109Z,4.03
2016-12-04T14:45:35.124Z,4
2016-12-04T14:46:44.520Z,4
2016-12-04T14:47:54.549Z,3.94
2016-12-04T14:49:04.582Z,3.92
2016-12-04T14:50:14.616Z,3.85
2016-12-04T14:51:24.654Z,3.82
2016-12-04T14:52:34.674Z,3.86
2016-12-04T14:53:45.001Z,3.89
2016-12-04T14:54:55.269Z,3.84
2016-12-04T14:56:05.615Z,3.86
2016-12-04T14:57:15.632Z,3.82
2016-12-04T14:58:25.955Z,3.81
2016-12-04T14:59:35.967Z,3.82
2016-12-04T15:00:45.978Z,3.84
2016-12-04T15:01:56.300Z,3.78
2016-12-04T15:03:06.631Z,3.64
2016-12-04T15:04:16.643Z,3.74
2016-12-04T15:05:26.645Z,3.69
2016-12-04T15:06:36.662Z,3.64
2016-12-04T15:07:46.702Z,3.64
2016-12-04T15:08:56.718Z,3.63
2016-12-04T15:10:06.736Z,3.63
2016-12-04T15:11:17.099Z,3.6
2016-12-04T15:12:27.125Z,3.51
2016-12-04T15:13:37.512Z,3.51
2016-12-04T15:14:47.839Z,3.49
2016-12-04T15:15:58.167Z,3.58
2016-12-04T15:17:08.189Z,3.54
2016-12-04T15:18:18.529Z,3.53
2016-12-04T15:19:28.852Z,3.48
2016-12-04T15:20:39.188Z,3.53
2016-12-04T15:21:49.520Z,3.53
2016-12-04T15:22:59.563Z,3.53
2016-12-04T15:24:09.889Z,3.58
2016-12-04T15:25:19.919Z,3.48
2016-12-04T15:26:29.947Z,3.53
2016-12-04T15:27:40.297Z,3.45
2016-12-04T15:28:50.640Z,3.43
2016-12-04T15:30:00.348Z,3.42
2016-12-04T15:31:10.357Z,3.45
2016-12-04T15:32:20.711Z,3.4
2016-12-04T15:33:31.059Z,3.46
2016-12-04T15:34:41.400Z,3.45
2016-12-04T15:35:51.736Z,3.4
2016-12-04T15:37:01.759Z,3.4
2016-12-04T15:38:12.096Z,3.32
2016-12-04T15:39:22.087Z,3.39
2016-12-04T15:40:31.800Z,3.35
2016-12-04T15:41:41.820Z,3.32
2016-12-04T15:42:51.857Z,3.37
2016-12-04T15:44:02.209Z,3.34
2016-12-04T15:45:12.221Z,3.37
2016-12-04T15:46:22.549Z,3.32
2016-12-04T15:47:32.560Z,3.27
2016-12-04T15:48:42.567Z,3.3
2016-12-04T15:49:52.573Z,3.24
2016-12-04T15:51:02.614Z,3.26
2016-12-04T15:52:12.634Z,3.24
2016-12-04T15:53:22.693Z,3.17
2016-12-04T15:54:33.015Z,3.19
2016-12-04T15:55:43.080Z,3.09
2016-12-04T15:56:53.426Z,3.19
2016-12-04T15:58:03.760Z,3.08
2016-12-04T15:59:13.806Z,3.09
2016-12-04T16:00:24.123Z,3.08
2016-12-04T16:01:34.449Z,3.06
2016-12-04T16:02:44.491Z,3.05
2016-12-04T16:03:54.824Z,3.11
2016-12-04T16:05:04.546Z,3.01
2016-12-04T16:06:14.252Z,3.03